createdAt,value
2022-10-03T00:00:58.033Z,10.32
2022-10-03T00:03:03.417Z,10.29
2022-10-03T00:05:09.645Z,10.27
2022-10-03T00:07:15.585Z,10.26
2022-10-03T00:09:21.354Z,10.23
2022-10-03T00:11:27.141Z,10.26
2022-10-03T00:13:32.413Z,10.31
2022-10-03T00:15:38.452Z,10.31
2022-10-03T00:17:44.292Z,10.31
2022-10-03T00:19:49.677Z,10.33
2022-10-03T00:21:55.023Z,10.32
2022-10-03T00:24:00.736Z,10.28
2022-10-03T00:26:06.066Z,10.23
2022-10-03T00:28:11.204Z,10.23
2022-10-03T00:30:16.928Z,10.21
2022-10-03T00:32:22.271Z,10.18
2022-10-03T00:34:27.895Z,10.2
2022-10-03T00:36:33.343Z,10.14
2022-10-03T00:38:38.653Z,10.13
2022-10-03T00:40:43.917Z,10.13
2022-10-03T00:42:49.435Z,10.15
2022-10-03T00:44:54.780Z,10.17
2022-10-03T00:47:00.592Z,10.19
2022-10-03T00:49:06.147Z,10.26
2022-10-03T00:51:11.622Z,10.34
2022-10-03T00:53:17.012Z,10.38
2022-10-03T00:55:22.513Z,10.4
2022-10-03T00:57:28.185Z,10.42
2022-10-03T00:59:33.725Z,10.42
2022-10-03T01:01:39.228Z,10.47
2022-10-03T01:03:46.486Z,10.54
2022-10-03T01:05:52.011Z,10.53
2022-10-03T01:07:57.293Z,10.54
2022-10-03T01:10:02.751Z,10.54
2022-10-03T01:12:08.266Z,10.55
2022-10-03T01:14:17.060Z,10.58
2022-10-03T01:16:22.589Z,10.59
2022-10-03T01:18:28.299Z,10.61
2022-10-03T01:20:33.640Z,10.59
2022-10-03T01:22:39.042Z,10.58
2022-10-03T01:24:44.394Z,10.6
2022-10-03T01:26:49.729Z,10.57
2022-10-03T01:28:55.100Z,10.53
2022-10-03T01:31:00.485Z,10.55
2022-10-03T01:33:06.568Z,10.57
2022-10-03T01:35:11.790Z,10.57
2022-10-03T01:37:17.288Z,10.55
2022-10-03T01:39:22.894Z,10.55
2022-10-03T01:41:28.441Z,10.54
2022-10-03T01:43:33.972Z,10.49
2022-10-03T01:45:39.239Z,10.52
2022-10-03T01:47:44.689Z,10.53
2022-10-03T01:49:50.058Z,10.51
2022-10-03T01:51:55.449Z,10.49
2022-10-03T01:54:00.927Z,10.5
2022-10-03T01:56:06.322Z,10.53
2022-10-03T01:58:15.122Z,10.52
2022-10-03T02:00:20.777Z,10.48
2022-10-03T02:02:26.651Z,10.52
2022-10-03T02:04:32.672Z,10.51
2022-10-03T02:06:37.972Z,10.51
2022-10-03T02:08:43.310Z,10.51
2022-10-03T02:10:48.767Z,10.47
2022-10-03T02:12:58.233Z,10.49
2022-10-03T02:15:03.942Z,10.5
2022-10-03T02:17:09.483Z,10.46
2022-10-03T02:19:14.813Z,10.45
2022-10-03T02:21:20.222Z,10.5
2022-10-03T02:23:25.692Z,10.49
2022-10-03T02:25:31.155Z,10.51
2022-10-03T02:27:36.250Z,10.46
2022-10-03T02:29:41.538Z,10.49
2022-10-03T02:31:47.134Z,10.48
2022-10-03T02:33:53.346Z,10.49
2022-10-03T02:35:58.820Z,10.46
2022-10-03T02:38:04.817Z,10.47
2022-10-03T02:40:10.385Z,10.44
2022-10-03T02:42:15.694Z,10.47
2022-10-03T02:44:21.324Z,10.47
2022-10-03T02:46:26.861Z,10.49
2022-10-03T02:48:32.750Z,10.49
2022-10-03T02:50:38.870Z,10.43
2022-10-03T02:52:44.459Z,10.45
2022-10-03T02:54:50.016Z,10.45
2022-10-03T02:56:55.398Z,10.49
2022-10-03T02:59:00.986Z,10.5
2022-10-03T03:01:06.265Z,10.52
2022-10-03T03:03:12.316Z,10.54
2022-10-03T03:05:17.943Z,10.49
2022-10-03T03:07:23.410Z,10.48
2022-10-03T03:09:28.953Z,10.52
2022-10-03T03:11:34.499Z,10.55
2022-10-03T03:13:40.940Z,10.54
2022-10-03T03:15:46.641Z,10.53
2022-10-03T03:17:52.199Z,10.54
2022-10-03T03:19:57.735Z,10.55
2022-10-03T03:22:03.369Z,10.56
2022-10-03T03:24:09.103Z,10.58
2022-10-03T03:26:14.295Z,10.6
2022-10-03T03:28:19.624Z,10.58
2022-10-03T03:30:25.787Z,10.58
2022-10-03T03:32:34.772Z,10.55
2022-10-03T03:34:40.293Z,10.58
2022-10-03T03:36:45.734Z,10.55
2022-10-03T03:38:51.646Z,10.57
2022-10-03T03:40:57.339Z,10.56
2022-10-03T03:43:03.166Z,10.52
2022-10-03T03:45:08.755Z,10.54
2022-10-03T03:47:15.144Z,10.57
2022-10-03T03:49:21.541Z,10.56
2022-10-03T03:51:27.539Z,10.52
2022-10-03T03:53:33.316Z,10.49
2022-10-03T03:55:39.591Z,10.52
2022-10-03T03:57:45.887Z,10.54
2022-10-03T03:59:52.359Z,10.54
2022-10-03T04:01:58.408Z,10.58
2022-10-03T04:04:04.996Z,10.58
2022-10-03T04:06:11.108Z,10.58
2022-10-03T04:08:16.794Z,10.57
2022-10-03T04:10:22.550Z,10.56
2022-10-03T04:12:28.718Z,10.53
2022-10-03T04:14:34.928Z,10.51
2022-10-03T04:16:40.746Z,10.49
2022-10-03T04:18:46.094Z,10.45
2022-10-03T04:20:52.006Z,10.48
2022-10-03T04:22:57.491Z,10.44
2022-10-03T04:25:03.280Z,10.5
2022-10-03T04:27:08.572Z,10.52
2022-10-03T04:29:14.116Z,10.52
2022-10-03T04:31:19.723Z,10.5
2022-10-03T04:33:25.981Z,10.54
2022-10-03T04:35:31.778Z,10.53
2022-10-03T04:37:38.164Z,10.54
2022-10-03T04:39:44.167Z,10.58
2022-10-03T04:41:50.051Z,10.59
2022-10-03T04:43:57.535Z,10.61
2022-10-03T04:46:03.969Z,10.63
2022-10-03T04:48:10.683Z,10.64
2022-10-03T04:50:16.682Z,10.66
2022-10-03T04:52:23.571Z,10.7
2022-10-03T04:54:29.534Z,10.73
2022-10-03T04:56:35.753Z,10.72
2022-10-03T04:58:42.066Z,10.68
2022-10-03T05:00:48.648Z,10.64
2022-10-03T05:02:55.056Z,10.6
2022-10-03T05:05:01.030Z,10.57
2022-10-03T05:07:07.693Z,10.59
2022-10-03T05:09:13.945Z,10.53
2022-10-03T05:11:20.270Z,10.51
2022-10-03T05:13:26.394Z,10.52
2022-10-03T05:15:33.718Z,10.51
2022-10-03T05:17:41.041Z,10.48
2022-10-03T05:19:48.255Z,10.46
2022-10-03T05:21:54.708Z,10.43
2022-10-03T05:24:01.138Z,10.47
2022-10-03T05:26:32.595Z,10.48
2022-10-03T05:28:51.515Z,10.52
2022-10-03T05:30:58.501Z,10.54
2022-10-03T05:33:08.439Z,10.55
2022-10-03T05:35:14.986Z,10.55
2022-10-03T05:37:21.407Z,10.54
2022-10-03T05:39:27.852Z,10.56
2022-10-03T05:41:34.651Z,10.56
2022-10-03T05:43:41.453Z,10.62
2022-10-03T05:45:47.982Z,10.61
2022-10-03T05:47:54.929Z,10.63
2022-10-03T05:50:01.440Z,10.68
2022-10-03T05:52:20.590Z,10.68
2022-10-03T05:54:26.831Z,10.73
2022-10-03T05:56:35.598Z,10.76
2022-10-03T05:58:46.220Z,10.75
2022-10-03T06:00:52.976Z,10.76
2022-10-03T06:02:59.391Z,10.87
2022-10-03T06:05:06.905Z,10.88
2022-10-03T06:07:13.851Z,10.89
2022-10-03T06:09:24.573Z,10.95
2022-10-03T06:11:32.830Z,10.98
2022-10-03T06:13:39.502Z,10.98
2022-10-03T06:15:45.347Z,11.04
2022-10-03T06:17:52.234Z,11.14
2022-10-03T06:20:01.611Z,11.16
2022-10-03T06:22:08.323Z,11.27
2022-10-03T06:24:17.350Z,11.22
2022-10-03T06:26:29.849Z,11.21
2022-10-03T06:28:39.769Z,11.21
2022-10-03T06:30:49.104Z,11.2
2022-10-03T06:33:00.420Z,11.2
2022-10-03T06:35:10.366Z,11.18
2022-10-03T06:37:16.694Z,11.24
2022-10-03T06:39:23.756Z,11.25
2022-10-03T06:41:33.234Z,11.29
2022-10-03T06:43:42.346Z,11.3
2022-10-03T06:45:52.684Z,11.32
2022-10-03T06:47:59.973Z,11.29
2022-10-03T06:50:11.856Z,11.27
2022-10-03T06:53:07.427Z,11.37
2022-10-03T06:55:27.002Z,11.41
2022-10-03T06:57:33.984Z,11.49
2022-10-03T06:59:47.064Z,11.55
2022-10-03T07:01:56.726Z,11.52
2022-10-03T07:04:15.021Z,11.48
2022-10-03T07:06:35.787Z,11.35
2022-10-03T07:08:46.367Z,11.32
2022-10-03T07:10:57.752Z,11.23
2022-10-03T07:13:07.774Z,11.14
2022-10-03T07:15:29.601Z,11.16
2022-10-03T07:18:47.755Z,11.12
2022-10-03T07:21:02.936Z,11.1
2022-10-03T07:23:19.229Z,11.07
2022-10-03T07:25:31.715Z,11.08
2022-10-03T07:27:41.501Z,11.07
2022-10-03T07:29:55.595Z,11.07
2022-10-03T07:32:05.486Z,11.07
2022-10-03T07:34:24.364Z,11.07
2022-10-03T07:36:42.397Z,11.11
2022-10-03T07:38:52.656Z,11.18
2022-10-03T07:41:02.244Z,11.26
2022-10-03T07:43:08.952Z,11.27
2022-10-03T07:45:23.081Z,11.26
2022-10-03T07:48:01.281Z,11.25
2022-10-03T07:50:12.306Z,11.25
2022-10-03T07:52:20.387Z,11.31
2022-10-03T07:54:26.596Z,11.28
2022-10-03T07:56:33.154Z,11.25
2022-10-03T07:58:42.975Z,11.33
2022-10-03T08:00:49.578Z,11.34
2022-10-03T08:02:56.349Z,11.44
2022-10-03T08:08:34.311Z,11.68
2022-10-03T08:10:40.879Z,11.82
2022-10-03T08:12:47.632Z,11.78
2022-10-03T08:14:56.931Z,11.88
2022-10-03T08:17:06.917Z,11.87
2022-10-03T08:19:30.837Z,11.98
2022-10-03T08:21:40.021Z,12.08
2022-10-03T08:24:02.033Z,12.08
2022-10-03T08:26:50.385Z,12.26
2022-10-03T08:29:00.603Z,12.28
2022-10-03T08:31:09.486Z,12.4
2022-10-03T08:34:39.875Z,12.49
2022-10-03T09:11:26.225Z,12.4
2022-10-03T09:13:40.208Z,12.4
2022-10-03T09:16:18.332Z,12.32
2022-10-03T09:18:28.437Z,12.26
2022-10-03T10:01:51.042Z,12.17
2022-10-03T10:07:17.071Z,11.94
2022-10-03T10:19:17.070Z,12.05
2022-10-03T10:24:45.008Z,12.06
2022-10-03T10:30:08.097Z,12.04
2022-10-03T10:35:41.749Z,11.87
2022-10-03T10:37:56.663Z,11.86
2022-10-03T10:40:06.685Z,11.84
2022-10-03T10:42:13.776Z,11.91
2022-10-03T10:44:20.223Z,11.9
2022-10-03T10:46:27.194Z,11.9
2022-10-03T10:48:36.946Z,12
2022-10-03T10:50:43.731Z,12.12
2022-10-03T10:52:50.390Z,12.18
2022-10-03T10:55:01.699Z,12.21
2022-10-03T10:57:14.121Z,12.08
2022-10-03T10:59:21.724Z,12.02
2022-10-03T11:01:31.991Z,12
2022-10-03T11:03:52.272Z,11.97
2022-10-03T11:06:02.810Z,11.95
2022-10-03T11:08:16.324Z,11.89
2022-10-03T11:10:29.403Z,11.96
2022-10-03T11:12:41.845Z,11.88
2022-10-03T11:14:52.153Z,11.96
2022-10-03T11:16:58.359Z,11.91
2022-10-03T11:19:05.267Z,11.99
2022-10-03T11:21:19.064Z,12.3
2022-10-03T11:23:28.972Z,12.91
2022-10-03T11:25:43.669Z,13.35
2022-10-03T11:27:53.781Z,14.12
2022-10-03T11:30:00.543Z,14.5
2022-10-03T11:32:11.748Z,14.92
2022-10-03T11:34:23.186Z,15.24
2022-10-03T11:36:32.764Z,15.28
2022-10-03T11:38:39.177Z,15.6
2022-10-03T11:40:47.285Z,16.08
2022-10-03T11:42:54.128Z,16.5
2022-10-03T11:45:00.572Z,16.7
2022-10-03T11:47:10.048Z,16.76
2022-10-03T11:49:16.585Z,16.75
2022-10-03T11:51:25.905Z,16.14
2022-10-03T11:53:38.400Z,16.84
2022-10-03T11:55:46.299Z,16.95
2022-10-03T11:57:54.725Z,16.34
2022-10-03T12:00:10.037Z,15.78
2022-10-03T12:02:24.672Z,16.97
2022-10-03T12:04:31.012Z,16.99
2022-10-03T12:06:45.247Z,16.74
2022-10-03T12:08:57.777Z,16.59
2022-10-03T12:11:10.714Z,16.18
2022-10-03T12:13:30.887Z,16.31
2022-10-03T12:15:51.501Z,16.32
2022-10-03T12:18:04.952Z,17.09
2022-10-03T12:20:20.009Z,16.82
2022-10-03T12:22:38.040Z,16.58
2022-10-03T12:24:52.353Z,17.26
2022-10-03T12:27:04.974Z,17.08
2022-10-03T12:29:12.614Z,16.79
2022-10-03T12:31:41.675Z,16.62
2022-10-03T12:36:49.429Z,15.69
2022-10-03T12:39:26.956Z,15.56
2022-10-03T12:41:42.972Z,15.4
2022-10-03T12:44:00.883Z,14.91
2022-10-03T12:46:43.074Z,14.65
2022-10-03T12:51:29.736Z,14.62
2022-10-03T12:53:50.241Z,14.59
2022-10-03T12:55:59.671Z,14.63
2022-10-03T12:58:06.301Z,14.71
2022-10-03T13:00:15.268Z,14.7
2022-10-03T13:02:34.258Z,14.58
2022-10-03T13:04:44.602Z,14.63
2022-10-03T13:07:03.135Z,14.46
2022-10-03T13:09:16.460Z,14.37
2022-10-03T13:11:25.309Z,14.35
2022-10-03T13:13:34.837Z,14.59
2022-10-03T13:15:41.732Z,14.61
2022-10-03T13:17:49.633Z,14.82
2022-10-03T13:19:59.904Z,14.92
2022-10-03T13:22:06.432Z,14.97
2022-10-03T13:24:15.588Z,14.86
2022-10-03T13:26:28.763Z,14.64
2022-10-03T13:28:36.709Z,14.49
2022-10-03T13:30:43.728Z,14.36
2022-10-03T13:32:55.847Z,14.37
2022-10-03T13:35:02.528Z,14.39
2022-10-03T13:37:09.354Z,14.4
2022-10-03T13:39:16.528Z,14.53
2022-10-03T13:41:31.733Z,14.59
2022-10-03T13:43:46.800Z,14.79
2022-10-03T13:45:56.514Z,14.92
2022-10-03T13:48:03.241Z,14.98
2022-10-03T13:50:09.961Z,14.93
2022-10-03T13:52:21.747Z,14.85
2022-10-03T13:54:34.348Z,14.79
2022-10-03T13:56:46.380Z,14.68
2022-10-03T13:59:02.744Z,14.59
2022-10-03T14:01:22.208Z,14.46
2022-10-03T14:03:28.966Z,14.49
2022-10-03T14:05:39.526Z,14.45
2022-10-03T14:07:47.757Z,14.31
2022-10-03T14:09:54.470Z,14.28
2022-10-03T14:12:01.132Z,14.14
2022-10-03T14:14:09.935Z,14.05
2022-10-03T14:18:35.029Z,13.97
2022-10-03T14:20:45.551Z,13.91
2022-10-03T14:22:57.645Z,13.88
2022-10-03T14:25:05.026Z,13.82
2022-10-03T14:27:11.806Z,13.76
2022-10-03T14:29:19.897Z,13.7
2022-10-03T14:31:26.349Z,13.66
2022-10-03T14:33:33.028Z,13.67
2022-10-03T14:35:39.596Z,13.64
2022-10-03T14:37:46.516Z,13.69
2022-10-03T14:39:58.525Z,13.69
2022-10-03T14:42:11.241Z,13.62
2022-10-03T14:44:32.388Z,13.64
2022-10-03T14:46:48.131Z,13.66
2022-10-03T14:49:04.581Z,13.58
2022-10-03T14:51:54.924Z,13.47
2022-10-03T14:54:02.200Z,13.5
2022-10-03T14:56:08.857Z,13.46
2022-10-03T14:58:19.043Z,13.35
2022-10-03T15:00:26.928Z,13.3
2022-10-03T15:02:33.654Z,13.18
2022-10-03T15:04:40.372Z,13.15
2022-10-03T15:06:49.825Z,13.05
2022-10-03T15:08:56.852Z,13.05
2022-10-03T15:11:04.086Z,12.95
2022-10-03T15:13:11.323Z,12.8
2022-10-03T15:15:17.963Z,12.7
2022-10-03T15:17:24.415Z,12.56
2022-10-03T15:19:31.230Z,12.59
2022-10-03T15:21:38.280Z,12.69
2022-10-03T15:23:48.411Z,12.65
2022-10-03T15:25:55.030Z,12.57
2022-10-03T15:28:02.007Z,12.52
2022-10-03T15:30:09.443Z,12.43
2022-10-03T15:32:15.988Z,12.36
2022-10-03T15:34:26.381Z,12.32
2022-10-03T15:36:36.467Z,12.21
2022-10-03T15:38:43.472Z,12.15
2022-10-03T15:40:50.114Z,12.09
2022-10-03T15:42:57.926Z,11.99
2022-10-03T15:45:09.355Z,11.92
2022-10-03T15:47:17.742Z,11.95
2022-10-03T15:49:24.564Z,11.89
2022-10-03T15:51:31.425Z,11.87
2022-10-03T15:53:40.703Z,11.85
2022-10-03T15:55:48.251Z,11.83
2022-10-03T15:57:55.027Z,11.73
2022-10-03T16:00:03.686Z,11.55
2022-10-03T16:02:11.999Z,11.49
2022-10-03T16:04:19.904Z,11.44
2022-10-03T16:06:33.574Z,11.32
2022-10-03T16:08:43.199Z,11.16
2022-10-03T16:10:51.540Z,11.13
2022-10-03T16:12:58.796Z,11.09
2022-10-03T16:15:11.129Z,11.06
2022-10-03T16:17:24.340Z,10.97
2022-10-03T16:19:36.739Z,10.96
2022-10-03T16:21:46.680Z,10.84
2022-10-03T16:23:56.423Z,10.8
2022-10-03T16:26:08.496Z,10.81
2022-10-03T16:28:15.362Z,10.73
2022-10-03T16:30:22.309Z,10.65
2022-10-03T16:32:29.519Z,10.58
2022-10-03T16:34:36.489Z,10.56
2022-10-03T16:36:48.283Z,10.54
2022-10-03T16:38:54.874Z,10.67
2022-10-03T16:41:01.748Z,10.66
2022-10-03T16:43:09.375Z,10.68
2022-10-03T16:45:17.209Z,10.61
2022-10-03T16:47:29.833Z,10.58
2022-10-03T16:49:37.443Z,10.55
2022-10-03T16:51:44.630Z,10.51
2022-10-03T16:53:52.063Z,10.56
2022-10-03T16:56:00.289Z,10.56
2022-10-03T16:58:13.403Z,10.53
2022-10-03T17:00:25.631Z,10.56
2022-10-03T17:02:32.964Z,10.52
2022-10-03T17:04:41.350Z,10.36
2022-10-03T17:06:54.676Z,10.25
2022-10-03T17:09:10.872Z,10.26
2022-10-03T17:11:18.964Z,10.31
2022-10-03T17:13:32.058Z,10.32
2022-10-03T17:18:46.763Z,10.27
2022-10-03T17:20:54.786Z,10.25
2022-10-03T17:23:14.029Z,10.22
2022-10-03T17:25:26.159Z,10.21
2022-10-03T17:27:33.335Z,10.15
2022-10-03T17:29:48.851Z,10.16
2022-10-03T17:32:00.000Z,10.15
2022-10-03T17:34:09.321Z,10.15
2022-10-03T17:36:22.672Z,10.1
2022-10-03T17:38:48.723Z,10.15
2022-10-03T17:40:59.610Z,10.13
2022-10-03T17:43:10.785Z,10.1
2022-10-03T17:45:18.240Z,10.1
2022-10-03T17:47:24.857Z,10.08
2022-10-03T17:49:31.613Z,10.09
2022-10-03T17:51:44.702Z,10.11
2022-10-03T17:53:57.266Z,10.06
2022-10-03T17:56:04.937Z,10.05
2022-10-03T17:58:16.354Z,10.06
2022-10-03T18:00:23.240Z,10.04
2022-10-03T18:02:34.567Z,10.09
2022-10-03T18:04:42.604Z,10.09
2022-10-03T18:06:50.913Z,10.02
2022-10-03T18:08:57.672Z,9.99
2022-10-03T18:11:08.845Z,10.01
2022-10-03T18:13:25.211Z,10.03
2022-10-03T18:15:35.645Z,10.01
2022-10-03T18:17:45.164Z,9.93
2022-10-03T18:19:57.340Z,9.89
2022-10-03T18:22:10.318Z,9.95
2022-10-03T18:24:16.836Z,9.93
2022-10-03T18:26:24.089Z,9.95
2022-10-03T18:28:33.329Z,9.98
2022-10-03T18:30:44.494Z,9.99
2022-10-03T18:32:54.451Z,9.91
2022-10-03T18:35:08.451Z,9.81
2022-10-03T18:37:15.925Z,9.82
2022-10-03T18:39:29.083Z,9.82
2022-10-03T18:41:44.496Z,9.85
2022-10-03T18:43:53.442Z,9.77
2022-10-03T18:46:02.507Z,9.73
2022-10-03T18:48:15.002Z,9.69
2022-10-03T18:50:23.774Z,9.73
2022-10-03T18:52:37.503Z,9.75
2022-10-03T18:54:45.558Z,9.72
2022-10-03T18:56:55.321Z,9.7
2022-10-03T18:59:08.483Z,9.72
2022-10-03T19:01:22.332Z,9.7
2022-10-03T19:03:35.731Z,9.67
2022-10-03T19:05:50.446Z,9.59
2022-10-03T19:08:00.912Z,9.6
2022-10-03T19:10:09.555Z,9.55
2022-10-03T19:12:17.720Z,9.47
2022-10-03T19:14:27.150Z,9.48
2022-10-03T19:16:34.191Z,9.48
2022-10-03T19:18:44.527Z,9.43
2022-10-03T19:20:52.666Z,9.42
2022-10-03T19:23:00.784Z,9.48
2022-10-03T19:25:09.643Z,9.54
2022-10-03T19:27:17.522Z,9.47
2022-10-03T19:29:31.694Z,9.53
2022-10-03T19:31:40.529Z,9.51
2022-10-03T19:33:50.452Z,9.41
2022-10-03T19:35:57.858Z,9.41
2022-10-03T19:38:06.776Z,9.45
2022-10-03T19:40:13.694Z,9.41
2022-10-03T19:42:22.768Z,9.44
2022-10-03T19:44:33.125Z,9.42
2022-10-03T19:46:40.172Z,9.42
2022-10-03T19:48:47.485Z,9.41
2022-10-03T19:50:54.171Z,9.43
2022-10-03T19:53:01.336Z,9.47
2022-10-03T19:55:09.216Z,9.55
2022-10-03T19:57:17.142Z,9.62
2022-10-03T19:59:30.453Z,9.6
2022-10-03T20:01:39.426Z,9.55
2022-10-03T20:03:48.106Z,9.57
2022-10-03T20:05:55.046Z,9.55
2022-10-03T20:08:02.594Z,9.53
2022-10-03T20:10:10.808Z,9.53
2022-10-03T20:12:21.358Z,9.5
2022-10-03T20:14:27.800Z,9.54
2022-10-03T20:16:36.592Z,9.54
2022-10-03T20:18:44.085Z,9.52
2022-10-03T20:20:53.194Z,9.56
2022-10-03T20:23:00.436Z,9.56
2022-10-03T20:25:08.168Z,9.71
2022-10-03T20:27:16.354Z,9.85
2022-10-03T20:29:26.329Z,9.94
2022-10-03T20:31:33.490Z,10
2022-10-03T20:33:43.003Z,10.07
2022-10-03T20:35:51.498Z,10.17
2022-10-03T20:37:59.654Z,10.22
2022-10-03T20:40:08.531Z,10.29
2022-10-03T20:42:15.119Z,10.32
2022-10-03T20:44:22.091Z,10.42
2022-10-03T20:46:29.042Z,10.46
2022-10-03T20:48:42.277Z,10.5
2022-10-03T20:50:51.266Z,10.54
2022-10-03T20:52:57.468Z,10.56
2022-10-03T20:55:08.375Z,10.57
2022-10-03T20:57:15.074Z,10.54
2022-10-03T20:59:21.534Z,10.58
2022-10-03T21:01:28.140Z,10.6
2022-10-03T21:03:40.761Z,10.56
2022-10-03T21:05:47.599Z,10.59
2022-10-03T21:07:55.969Z,10.63
2022-10-03T21:10:03.109Z,10.67
2022-10-03T21:12:15.396Z,10.71
2022-10-03T21:14:28.140Z,10.74
2022-10-03T21:16:41.823Z,10.75
2022-10-03T21:18:48.381Z,10.74
2022-10-03T21:20:57.901Z,10.73
2022-10-03T21:23:10.420Z,10.74
2022-10-03T21:25:16.875Z,10.69
2022-10-03T21:27:30.245Z,10.73
2022-10-03T21:29:36.086Z,10.79
2022-10-03T21:31:45.183Z,10.83
2022-10-03T21:33:51.288Z,10.79
2022-10-03T21:36:00.583Z,10.81
2022-10-03T21:38:10.125Z,10.83
2022-10-03T21:40:18.727Z,10.82
2022-10-03T21:42:28.274Z,10.78
2022-10-03T21:44:41.990Z,10.78
2022-10-03T21:46:47.969Z,10.72
2022-10-03T21:48:59.497Z,10.69
2022-10-03T21:51:05.799Z,10.7
2022-10-03T21:53:12.166Z,10.66
2022-10-03T21:55:23.924Z,10.64
2022-10-03T21:57:57.146Z,10.56
2022-10-03T22:00:06.817Z,10.52
2022-10-03T22:02:16.973Z,10.42
2022-10-03T22:04:25.862Z,10.33
2022-10-03T22:06:32.098Z,10.33
2022-10-03T22:08:38.088Z,10.28
2022-10-03T22:10:47.285Z,10.3
2022-10-03T22:12:57.690Z,10.33
2022-10-03T22:15:04.467Z,10.31
2022-10-03T22:17:10.919Z,10.31
2022-10-03T22:19:19.290Z,10.32
2022-10-03T22:21:25.336Z,10.33
2022-10-03T22:23:34.091Z,10.3
2022-10-03T22:25:39.644Z,10.32
2022-10-03T22:27:45.247Z,10.3
2022-10-03T22:29:51.329Z,10.26
2022-10-03T22:31:58.625Z,10.23
2022-10-03T22:34:04.501Z,10.25
2022-10-03T22:36:10.306Z,10.24
2022-10-03T22:38:20.815Z,10.27
2022-10-03T22:40:29.366Z,10.29
2022-10-03T22:42:35.406Z,10.3
2022-10-03T22:44:41.958Z,10.33
2022-10-03T22:46:50.747Z,10.3
2022-10-03T22:48:56.238Z,10.28
2022-10-03T22:51:01.889Z,10.25
2022-10-03T22:53:12.705Z,10.23
2022-10-03T22:55:17.982Z,10.26
2022-10-03T22:57:26.302Z,10.29
2022-10-03T22:59:38.337Z,10.33
2022-10-03T23:01:47.185Z,10.32
2022-10-03T23:03:53.332Z,10.36
2022-10-03T23:06:02.316Z,10.39
2022-10-03T23:08:10.502Z,10.43
2022-10-03T23:10:16.591Z,10.46
2022-10-03T23:12:22.671Z,10.48
2022-10-03T23:14:31.511Z,10.5
2022-10-03T23:16:37.131Z,10.55
2022-10-03T23:18:45.459Z,10.61
2022-10-03T23:20:51.172Z,10.67
2022-10-03T23:23:00.249Z,10.7
2022-10-03T23:25:09.275Z,10.73
2022-10-03T23:27:17.882Z,10.73
2022-10-03T23:29:25.426Z,10.8
2022-10-03T23:31:35.851Z,10.81
2022-10-03T23:33:42.875Z,10.86
2022-10-03T23:35:48.446Z,10.89
2022-10-03T23:37:54.239Z,10.89
2022-10-03T23:39:59.629Z,10.89
2022-10-03T23:42:07.724Z,10.92
2022-10-03T23:44:13.555Z,10.95
2022-10-03T23:46:20.160Z,10.93
2022-10-03T23:48:34.852Z,10.91
2022-10-03T23:50:43.261Z,10.93
2022-10-03T23:52:51.552Z,10.92
2022-10-03T23:54:57.463Z,10.94
2022-10-03T23:57:10.438Z,10.92
2022-10-03T23:59:18.985Z,10.85
